createdAt,value
2022-10-18T00:00:24.410Z,32.80
2022-10-18T00:03:15.767Z,29.60
2022-10-18T00:05:47.739Z,28.20
2022-10-18T00:08:20.044Z,28.30
2022-10-18T00:10:51.837Z,27.30
2022-10-18T00:13:23.736Z,33.90
2022-10-18T00:15:59.396Z,34.80
2022-10-18T00:18:31.546Z,32.20
2022-10-18T00:21:06.445Z,33.20
2022-10-18T00:23:39.048Z,39.50
2022-10-18T00:26:12.861Z,37.30
2022-10-18T00:31:21.008Z,37.20
2022-10-18T00:33:54.894Z,35.80
2022-10-18T00:36:28.123Z,32.20
2022-10-18T00:38:59.778Z,31.70
2022-10-18T00:41:33.987Z,35.00
2022-10-18T00:44:09.035Z,36.40
2022-10-18T00:46:42.027Z,32.80
2022-10-18T00:49:16.789Z,31.00
2022-10-18T00:51:51.077Z,34.20
2022-10-18T00:54:24.535Z,34.60
2022-10-18T00:56:56.590Z,29.10
2022-10-18T00:59:28.642Z,33.10
2022-10-18T01:02:00.299Z,33.90
2022-10-18T01:04:31.914Z,34.50
2022-10-18T01:07:11.734Z,32.90
2022-10-18T01:09:48.301Z,35.20
2022-10-18T01:12:29.250Z,31.60
2022-10-18T01:15:14.250Z,30.20
2022-10-18T01:17:53.274Z,30.60
2022-10-18T01:20:48.895Z,23.60
2022-10-18T01:23:31.182Z,23.70
2022-10-18T01:26:14.540Z,24.40
2022-10-18T01:28:58.455Z,27.50
2022-10-18T01:34:06.322Z,21.90
2022-10-18T01:36:40.969Z,23.30
2022-10-18T01:39:17.293Z,21.70
2022-10-18T01:41:50.917Z,22.10
2022-10-18T01:44:25.611Z,17.50
2022-10-18T01:46:59.457Z,21.20
2022-10-18T01:49:30.793Z,21.10
2022-10-18T01:52:02.326Z,23.70
2022-10-18T01:54:37.470Z,23.70
2022-10-18T01:57:18.095Z,20.50
2022-10-18T01:59:59.376Z,23.60
2022-10-18T02:02:45.673Z,24.70
2022-10-18T02:05:25.488Z,20.60
2022-10-18T02:08:18.785Z,24.60
2022-10-18T02:10:58.312Z,24.60
2022-10-18T02:13:37.229Z,22.00
2022-10-18T02:16:11.929Z,22.40
2022-10-18T02:18:47.994Z,25.30
2022-10-18T02:21:22.453Z,22.40
2022-10-18T02:23:55.302Z,25.80
2022-10-18T02:26:27.074Z,21.00
2022-10-18T02:28:58.616Z,24.50
2022-10-18T02:31:33.031Z,19.60
2022-10-18T02:34:10.001Z,17.00
2022-10-18T02:36:46.479Z,19.80
2022-10-18T02:39:22.057Z,18.30
2022-10-18T02:41:54.353Z,20.30
2022-10-18T02:44:25.974Z,16.30
2022-10-18T02:46:58.035Z,18.40
2022-10-18T02:49:29.763Z,20.00
2022-10-18T02:52:01.179Z,19.10
2022-10-18T02:54:32.735Z,17.90
2022-10-18T02:57:04.066Z,18.20
2022-10-18T02:59:35.372Z,20.40
2022-10-18T03:02:06.804Z,19.10
2022-10-18T03:04:38.191Z,20.90
2022-10-18T03:07:09.504Z,20.00
2022-10-18T03:09:40.897Z,19.60
2022-10-18T03:12:12.389Z,20.60
2022-10-18T03:14:43.700Z,21.30
2022-10-18T03:17:14.986Z,20.40
2022-10-18T03:19:46.331Z,19.60
2022-10-18T03:22:17.702Z,17.30
2022-10-18T03:24:49.087Z,20.70
2022-10-18T03:27:20.457Z,26.20
2022-10-18T03:29:51.794Z,24.60
2022-10-18T03:32:23.105Z,20.30
2022-10-18T03:34:55.093Z,21.10
2022-10-18T03:37:26.383Z,18.90
2022-10-18T03:39:57.675Z,17.00
2022-10-18T03:42:29.120Z,19.60
2022-10-18T03:45:00.736Z,19.40
2022-10-18T03:47:32.096Z,16.90
2022-10-18T03:50:03.394Z,19.20
2022-10-18T03:52:34.830Z,17.30
2022-10-18T03:55:07.843Z,19.00
2022-10-18T03:57:39.161Z,17.50
2022-10-18T04:00:12.957Z,18.10
2022-10-18T04:02:44.413Z,18.00
2022-10-18T04:05:15.827Z,16.40
2022-10-18T04:07:47.629Z,13.80
2022-10-18T04:10:19.904Z,14.80
2022-10-18T04:12:51.259Z,15.10
2022-10-18T04:15:22.894Z,15.60
2022-10-18T04:17:54.180Z,12.80
2022-10-18T04:20:25.838Z,16.00
2022-10-18T04:22:57.817Z,14.60
2022-10-18T04:25:29.977Z,19.10
2022-10-18T04:28:01.341Z,18.80
2022-10-18T04:30:32.762Z,17.30
2022-10-18T04:33:04.105Z,14.90
2022-10-18T04:35:35.523Z,16.00
2022-10-18T04:38:06.849Z,15.20
2022-10-18T04:40:38.281Z,19.30
2022-10-18T04:43:09.619Z,18.20
2022-10-18T04:45:40.977Z,15.00
2022-10-18T04:48:12.331Z,16.60
2022-10-18T04:50:43.680Z,21.70
2022-10-18T04:53:14.987Z,26.10
2022-10-18T04:55:47.758Z,18.20
2022-10-18T04:58:19.572Z,20.10
2022-10-18T05:00:51.324Z,23.80
2022-10-18T05:03:22.666Z,30.30
2022-10-18T05:06:01.943Z,29.10
2022-10-18T05:08:36.535Z,34.90
2022-10-18T05:13:47.175Z,43.00
2022-10-18T05:16:21.427Z,33.80
2022-10-18T05:18:53.051Z,31.60
2022-10-18T05:21:24.455Z,23.60
2022-10-18T05:23:59.035Z,28.50
2022-10-18T05:26:30.569Z,27.60
2022-10-18T05:29:01.995Z,23.20
2022-10-18T05:31:33.636Z,21.80
2022-10-18T05:34:04.990Z,17.80
2022-10-18T05:36:36.369Z,21.60
2022-10-18T05:39:08.321Z,28.60
2022-10-18T05:41:40.004Z,24.80
2022-10-18T05:44:12.123Z,26.10
2022-10-18T05:46:43.926Z,23.50
2022-10-18T05:49:15.977Z,30.10
2022-10-18T05:51:47.309Z,29.70
2022-10-18T05:54:18.884Z,40.60
2022-10-18T05:56:50.349Z,41.10
2022-10-18T05:59:21.816Z,63.20
2022-10-18T06:01:53.176Z,66.40
2022-10-18T06:04:24.811Z,68.00
2022-10-18T06:06:56.570Z,63.80
2022-10-18T06:09:28.844Z,51.80
2022-10-18T06:12:00.205Z,55.30
2022-10-18T06:14:31.880Z,52.10
2022-10-18T06:17:03.202Z,40.50
2022-10-18T06:19:34.521Z,43.30
2022-10-18T06:22:05.896Z,29.10
2022-10-18T06:24:37.250Z,27.90
2022-10-18T06:27:09.646Z,23.70
2022-10-18T06:29:41.660Z,20.00
2022-10-18T06:32:13.146Z,17.40
2022-10-18T06:34:44.573Z,16.40
2022-10-18T06:37:16.315Z,18.40
2022-10-18T06:39:47.787Z,18.20
2022-10-18T06:42:21.891Z,14.90
2022-10-18T06:44:54.197Z,11.80
2022-10-18T06:47:25.551Z,13.50
2022-10-18T06:49:56.879Z,20.60
2022-10-18T06:52:28.273Z,20.40
2022-10-18T06:54:59.554Z,20.90
2022-10-18T06:57:31.777Z,15.40
2022-10-18T07:00:04.312Z,19.60
2022-10-18T07:02:35.663Z,19.00
2022-10-18T07:05:08.244Z,8.10
2022-10-18T07:07:39.722Z,10.30
2022-10-18T07:10:13.258Z,10.50
2022-10-18T07:12:44.743Z,10.20
2022-10-18T07:15:17.974Z,11.10
2022-10-18T07:17:49.516Z,9.60
2022-10-18T07:20:20.904Z,10.10
2022-10-18T07:22:56.715Z,12.40
2022-10-18T07:25:29.903Z,12.10
2022-10-18T07:28:02.091Z,9.00
2022-10-18T07:30:33.472Z,9.40
2022-10-18T07:33:04.786Z,23.10
2022-10-18T07:35:36.136Z,7.90
2022-10-18T07:38:07.526Z,8.30
2022-10-18T07:40:38.924Z,6.30
2022-10-18T07:43:12.184Z,5.90
2022-10-18T07:45:52.258Z,9.00
2022-10-18T07:48:23.726Z,6.00
2022-10-18T07:50:55.439Z,7.50
2022-10-18T07:53:27.165Z,6.20
2022-10-18T07:56:04.533Z,7.70
2022-10-18T07:58:38.762Z,8.80
2022-10-18T08:01:11.259Z,11.80
2022-10-18T08:03:43.671Z,6.70
2022-10-18T08:06:18.123Z,6.80
2022-10-18T08:08:50.156Z,5.50
2022-10-18T08:11:23.418Z,6.30
2022-10-18T08:13:55.135Z,5.10
2022-10-18T08:19:04.391Z,5.30
2022-10-18T08:21:35.777Z,7.90
2022-10-18T08:24:08.178Z,8.70
2022-10-18T08:26:39.591Z,7.50
2022-10-18T08:29:31.546Z,7.30
2022-10-18T08:32:03.392Z,7.60
2022-10-18T08:34:35.064Z,6.30
2022-10-18T08:37:06.592Z,4.50
2022-10-18T08:39:38.108Z,6.00
2022-10-18T08:42:34.499Z,6.90
2022-10-18T08:45:17.965Z,6.00
2022-10-18T08:48:00.087Z,4.60
2022-10-18T08:50:36.797Z,10.90
2022-10-18T08:53:18.855Z,4.80
2022-10-18T08:55:53.426Z,7.40
2022-10-18T08:58:26.776Z,7.80
2022-10-18T09:01:08.091Z,5.50
2022-10-18T09:04:07.638Z,6.00
2022-10-18T09:06:50.523Z,6.00
2022-10-18T09:09:35.364Z,5.20
2022-10-18T09:12:28.289Z,5.60
2022-10-18T09:15:17.620Z,4.60
2022-10-18T09:18:04.267Z,6.00
2022-10-18T09:20:42.134Z,5.20
2022-10-18T09:23:19.622Z,5.50
2022-10-18T09:25:55.574Z,5.20
2022-10-18T09:28:44.312Z,7.30
2022-10-18T09:31:22.557Z,3.60
2022-10-18T09:33:58.157Z,4.20
2022-10-18T09:36:35.721Z,4.60
2022-10-18T09:39:13.231Z,5.50
2022-10-18T09:41:50.009Z,5.90
2022-10-18T09:44:24.161Z,7.50
2022-10-18T09:47:00.818Z,7.40
2022-10-18T09:49:37.358Z,6.10
2022-10-18T09:52:20.800Z,8.50
2022-10-18T09:54:56.627Z,7.00
2022-10-18T09:57:33.864Z,6.70
2022-10-18T10:00:14.101Z,5.70
2022-10-18T10:02:45.732Z,4.50
2022-10-18T10:05:17.958Z,5.10
2022-10-18T10:07:50.672Z,5.60
2022-10-18T10:10:26.093Z,5.60
2022-10-18T10:13:08.406Z,6.60
2022-10-18T10:15:42.547Z,4.30
2022-10-18T10:18:22.591Z,4.20
2022-10-18T10:20:57.244Z,4.60
2022-10-18T10:23:31.545Z,4.90
2022-10-18T10:26:05.962Z,4.80
2022-10-18T10:28:43.718Z,5.50
2022-10-18T10:31:28.319Z,5.10
2022-10-18T10:34:05.122Z,4.80
2022-10-18T10:36:47.205Z,4.90
2022-10-18T10:39:20.226Z,4.30
2022-10-18T10:41:53.856Z,5.30
2022-10-18T10:44:27.897Z,7.20
2022-10-18T10:47:00.375Z,6.20
2022-10-18T10:49:44.662Z,3.60
2022-10-18T10:52:28.811Z,4.80
2022-10-18T10:55:30.427Z,4.70
2022-10-18T10:57:56.550Z,4.70
2022-10-18T11:00:43.823Z,6.30
2022-10-18T11:03:28.482Z,4.10
2022-10-18T11:06:01.965Z,4.70
2022-10-18T11:08:39.159Z,3.80
2022-10-18T11:11:22.867Z,6.10
2022-10-18T11:14:13.551Z,5.50
2022-10-18T11:16:57.450Z,3.80
2022-10-18T11:19:40.049Z,5.90
2022-10-18T11:22:18.433Z,5.50
2022-10-18T11:24:50.364Z,4.40
2022-10-18T11:27:28.566Z,6.10
2022-10-18T11:30:15.250Z,6.80
2022-10-18T11:32:58.620Z,6.50
2022-10-18T11:35:45.512Z,4.20
2022-10-18T11:38:28.519Z,4.90
2022-10-18T11:41:15.470Z,5.40
2022-10-18T11:44:02.654Z,4.20
2022-10-18T11:46:48.713Z,3.60
2022-10-18T11:49:33.925Z,5.90
2022-10-18T11:52:14.285Z,4.70
2022-10-18T11:54:58.362Z,5.70
2022-10-18T11:57:51.821Z,5.50
2022-10-18T12:03:22.652Z,4.30
2022-10-18T12:05:56.742Z,5.50
2022-10-18T12:08:34.945Z,5.30
2022-10-18T12:11:14.500Z,4.20
2022-10-18T12:13:51.342Z,5.40
2022-10-18T12:16:49.595Z,6.60
2022-10-18T12:19:25.418Z,4.60
2022-10-18T12:22:14.915Z,7.10
2022-10-18T12:24:46.269Z,5.80
2022-10-18T12:27:19.322Z,4.70
2022-10-18T12:32:31.034Z,4.20
2022-10-18T12:35:07.835Z,4.20
2022-10-18T12:38:00.726Z,4.70
2022-10-18T12:40:39.639Z,3.80
2022-10-18T12:43:18.055Z,4.30
2022-10-18T12:45:55.690Z,6.80
2022-10-18T12:48:36.405Z,5.80
2022-10-18T12:51:15.402Z,5.00
2022-10-18T12:53:48.738Z,6.10
2022-10-18T12:56:44.065Z,5.60
2022-10-18T12:59:49.589Z,5.10
2022-10-18T13:02:29.876Z,4.30
2022-10-18T13:05:02.395Z,4.80
2022-10-18T13:07:43.218Z,4.10
2022-10-18T13:10:43.683Z,5.70
2022-10-18T13:13:42.182Z,5.00
2022-10-18T13:16:27.758Z,5.50
2022-10-18T13:19:03.678Z,4.30
2022-10-18T13:21:47.149Z,6.40
2022-10-18T13:24:35.070Z,7.80
2022-10-18T13:27:41.337Z,5.90
2022-10-18T13:30:35.158Z,5.70
2022-10-18T13:33:31.606Z,4.70
2022-10-18T13:36:08.286Z,4.50
2022-10-18T13:38:47.817Z,4.60
2022-10-18T13:41:21.978Z,7.10
2022-10-18T13:44:28.304Z,5.80
2022-10-18T13:47:15.745Z,5.10
2022-10-18T13:50:16.863Z,5.80
2022-10-18T13:53:27.244Z,6.70
2022-10-18T13:56:11.673Z,5.20
2022-10-18T13:59:13.483Z,5.10
2022-10-18T14:01:57.212Z,4.60
2022-10-18T14:05:17.018Z,5.20
2022-10-18T14:08:05.671Z,5.40
2022-10-18T14:11:01.742Z,7.10
2022-10-18T14:13:40.564Z,9.50
2022-10-18T14:16:28.878Z,8.30
2022-10-18T14:19:09.338Z,9.40
2022-10-18T14:21:48.806Z,6.60
2022-10-18T14:24:25.677Z,7.90
2022-10-18T14:27:20.111Z,7.90
2022-10-18T14:30:07.618Z,6.30
2022-10-18T14:32:43.651Z,7.10
2022-10-18T14:35:38.140Z,6.20
2022-10-18T14:38:16.342Z,7.80
2022-10-18T14:40:48.031Z,6.00
2022-10-18T14:43:21.908Z,7.80
2022-10-18T14:45:53.239Z,7.90
2022-10-18T14:48:25.213Z,6.30
2022-10-18T14:51:00.537Z,6.90
2022-10-18T14:53:38.516Z,7.40
2022-10-18T14:56:21.225Z,6.20
2022-10-18T14:58:53.874Z,9.40
2022-10-18T15:01:28.923Z,8.40
2022-10-18T15:04:06.067Z,10.20
2022-10-18T15:06:37.710Z,10.10
2022-10-18T15:09:11.100Z,12.10
2022-10-18T15:11:44.897Z,12.30
2022-10-18T15:14:19.961Z,8.00
2022-10-18T15:16:56.406Z,7.30
2022-10-18T15:19:33.871Z,7.20
2022-10-18T15:22:30.707Z,7.10
2022-10-18T15:25:16.749Z,6.60
2022-10-18T15:27:51.104Z,7.50
2022-10-18T15:30:28.139Z,7.80
2022-10-18T15:33:01.471Z,8.80
2022-10-18T15:35:35.047Z,7.50
2022-10-18T15:40:46.670Z,7.90
2022-10-18T15:43:40.531Z,8.90
2022-10-18T15:46:33.020Z,11.00
2022-10-18T15:49:52.299Z,6.90
2022-10-18T15:52:41.414Z,8.30
2022-10-18T15:55:48.401Z,10.00
2022-10-18T15:58:29.072Z,7.50
2022-10-18T16:01:02.313Z,13.90
2022-10-18T16:03:36.039Z,15.90
2022-10-18T16:06:12.310Z,13.10
2022-10-18T16:08:50.323Z,10.10
2022-10-18T16:11:23.686Z,9.50
2022-10-18T16:16:31.578Z,15.50
2022-10-18T16:19:03.492Z,14.80
2022-10-18T16:21:38.290Z,14.00
2022-10-18T16:24:10.653Z,13.00
2022-10-18T16:26:42.252Z,16.60
2022-10-18T16:29:16.691Z,13.60
2022-10-18T16:31:50.995Z,13.00
2022-10-18T16:34:22.549Z,11.40
2022-10-18T16:36:54.009Z,11.80
2022-10-18T16:39:25.966Z,13.00
2022-10-18T16:41:57.414Z,13.70
2022-10-18T16:44:28.973Z,12.20
2022-10-18T16:47:00.523Z,14.20
2022-10-18T16:49:32.195Z,10.00
2022-10-18T16:52:03.840Z,11.40
2022-10-18T16:54:35.908Z,11.30
2022-10-18T16:57:07.574Z,12.50
2022-10-18T16:59:40.273Z,9.30
2022-10-18T17:02:12.418Z,12.50
2022-10-18T17:04:43.877Z,10.90
2022-10-18T17:07:24.331Z,10.20
2022-10-18T17:09:56.029Z,10.60
2022-10-18T17:12:27.674Z,9.50
2022-10-18T17:14:59.097Z,12.60
2022-10-18T17:17:30.934Z,12.40
2022-10-18T17:20:04.896Z,11.70
2022-10-18T17:25:07.986Z,11.80
2022-10-18T17:27:39.324Z,13.10
2022-10-18T17:30:14.621Z,11.50
2022-10-18T17:32:46.033Z,15.30
2022-10-18T17:35:17.681Z,11.60
2022-10-18T17:37:52.307Z,12.80
2022-10-18T17:40:24.332Z,12.80
2022-10-18T17:42:56.351Z,17.30
2022-10-18T17:45:27.997Z,15.90
2022-10-18T17:47:59.561Z,13.40
2022-10-18T17:50:31.115Z,19.30
2022-10-18T17:53:02.659Z,12.90
2022-10-18T17:55:35.136Z,12.40
2022-10-18T17:58:06.769Z,13.60
2022-10-18T18:00:38.452Z,14.40
2022-10-18T18:03:10.081Z,12.70
2022-10-18T18:05:41.517Z,14.30
2022-10-18T18:08:12.909Z,16.00
2022-10-18T18:10:44.735Z,13.10
2022-10-18T18:13:18.958Z,14.60
2022-10-18T18:15:51.265Z,12.00
2022-10-18T18:18:22.730Z,14.10
2022-10-18T18:20:55.369Z,13.20
2022-10-18T18:23:27.060Z,14.40
2022-10-18T18:26:00.049Z,14.20
2022-10-18T18:28:31.531Z,16.60
2022-10-18T18:31:05.821Z,12.60
2022-10-18T18:33:38.000Z,16.90
2022-10-18T18:36:10.577Z,14.70
2022-10-18T18:38:43.509Z,13.60
2022-10-18T18:41:17.064Z,13.60
2022-10-18T18:43:54.758Z,17.10
2022-10-18T18:46:28.265Z,17.20
2022-10-18T18:49:01.202Z,13.40
2022-10-18T18:51:33.318Z,16.20
2022-10-18T18:54:05.307Z,14.10
2022-10-18T18:56:36.735Z,17.00
2022-10-18T18:59:08.697Z,15.70
2022-10-18T19:01:41.010Z,13.50
2022-10-18T19:04:13.034Z,13.10
2022-10-18T19:06:46.429Z,13.20
2022-10-18T19:09:22.203Z,10.40
2022-10-18T19:11:55.486Z,8.80
2022-10-18T19:14:29.185Z,10.70
2022-10-18T19:17:01.748Z,7.90
2022-10-18T19:19:34.132Z,9.60
2022-10-18T19:22:08.554Z,7.90
2022-10-18T19:24:39.923Z,8.90
2022-10-18T19:27:13.073Z,11.60
2022-10-18T19:29:46.047Z,8.80
2022-10-18T19:32:18.963Z,7.40
2022-10-18T19:34:50.424Z,5.60
2022-10-18T19:37:21.811Z,5.00
2022-10-18T19:39:53.187Z,5.10
2022-10-18T19:42:31.763Z,3.70
2022-10-18T19:45:03.348Z,4.00
2022-10-18T19:47:34.932Z,4.70
2022-10-18T19:50:07.419Z,3.30
2022-10-18T19:52:38.813Z,4.90
2022-10-18T19:55:10.867Z,2.30
2022-10-18T19:57:42.195Z,3.00
2022-10-18T20:00:19.306Z,2.00
2022-10-18T20:02:50.941Z,1.60
2022-10-18T20:05:22.441Z,2.00
2022-10-18T20:07:53.899Z,2.10
2022-10-18T20:10:25.308Z,1.20
2022-10-18T20:12:56.590Z,2.70
2022-10-18T20:15:28.242Z,2.80
2022-10-18T20:17:59.597Z,1.50
2022-10-18T20:20:30.949Z,1.40
2022-10-18T20:23:02.266Z,1.10
2022-10-18T20:25:33.593Z,1.80
2022-10-18T20:28:05.840Z,1.50
2022-10-18T20:30:37.337Z,1.10
2022-10-18T20:33:08.647Z,1.90
2022-10-18T20:35:40.074Z,1.50
2022-10-18T20:38:11.453Z,3.30
2022-10-18T20:40:42.798Z,1.10
2022-10-18T20:43:15.156Z,1.80
2022-10-18T20:45:46.516Z,1.90
2022-10-18T20:48:17.921Z,2.80
2022-10-18T20:50:49.283Z,2.10
2022-10-18T20:53:22.225Z,2.20
2022-10-18T20:55:53.571Z,1.60
2022-10-18T20:58:24.867Z,1.80
2022-10-18T21:00:56.181Z,2.30
2022-10-18T21:03:27.748Z,2.50
2022-10-18T21:06:02.155Z,1.80
2022-10-18T21:08:33.463Z,1.10
2022-10-18T21:11:04.793Z,1.70
2022-10-18T21:13:36.608Z,1.50
2022-10-18T21:16:08.924Z,1.30
2022-10-18T21:18:41.160Z,1.70
2022-10-18T21:21:14.854Z,2.40
2022-10-18T21:26:19.101Z,1.20
2022-10-18T21:28:52.144Z,2.00
2022-10-18T21:31:25.494Z,1.90
2022-10-18T21:33:58.187Z,2.40
2022-10-18T21:36:31.788Z,2.30
2022-10-18T21:39:03.517Z,2.50
2022-10-18T21:41:36.430Z,1.30
2022-10-18T21:44:10.751Z,1.50
2022-10-18T21:46:43.945Z,1.40
2022-10-18T21:49:16.628Z,1.90
2022-10-18T21:51:47.995Z,2.10
2022-10-18T21:54:19.931Z,1.50
2022-10-18T21:56:51.951Z,2.50
2022-10-18T21:59:23.618Z,2.10
2022-10-18T22:01:54.932Z,2.70
2022-10-18T22:04:27.340Z,3.50
2022-10-18T22:06:59.554Z,1.50
2022-10-18T22:09:31.203Z,2.10
2022-10-18T22:12:02.868Z,3.40
2022-10-18T22:14:34.314Z,2.00
2022-10-18T22:17:06.026Z,2.10
2022-10-18T22:19:37.326Z,4.10
2022-10-18T22:22:08.676Z,2.30
2022-10-18T22:24:40.480Z,3.00
2022-10-18T22:27:11.909Z,2.90
2022-10-18T22:29:43.517Z,3.10
2022-10-18T22:32:14.915Z,2.20
2022-10-18T22:34:46.979Z,2.60
2022-10-18T22:37:18.431Z,1.60
2022-10-18T22:39:49.766Z,3.30
2022-10-18T22:42:21.108Z,2.80
2022-10-18T22:44:52.481Z,2.70
2022-10-18T22:47:24.313Z,3.40
2022-10-18T22:49:55.653Z,3.20
2022-10-18T22:52:27.005Z,3.30
2022-10-18T22:54:58.315Z,3.00
2022-10-18T22:57:31.197Z,3.70
2022-10-18T23:00:02.874Z,4.00
2022-10-18T23:02:35.122Z,6.10
2022-10-18T23:05:08.159Z,3.20
2022-10-18T23:07:39.531Z,6.90
2022-10-18T23:10:11.504Z,5.20
2022-10-18T23:12:42.857Z,5.80
2022-10-18T23:15:14.504Z,3.90
2022-10-18T23:17:45.821Z,5.30
2022-10-18T23:20:17.551Z,8.30
2022-10-18T23:22:48.862Z,6.40
2022-10-18T23:25:20.789Z,5.90
2022-10-18T23:27:52.148Z,5.80
2022-10-18T23:30:23.479Z,6.80
2022-10-18T23:32:54.823Z,6.60
2022-10-18T23:35:26.325Z,6.50
2022-10-18T23:37:57.686Z,5.30
2022-10-18T23:40:29.026Z,4.20
2022-10-18T23:43:00.343Z,6.10
2022-10-18T23:45:31.632Z,5.70
2022-10-18T23:48:02.917Z,6.90
2022-10-18T23:50:34.386Z,8.90
2022-10-18T23:53:05.710Z,8.20
2022-10-18T23:55:37.024Z,15.50
2022-10-18T23:58:08.357Z,9.30
